sensor_id;sensor_type;location;lat;lon;timestamp;pressure;altitude;pressure_sealevel;temperature;humidity
68525;BME280;55524;51.380;13.372;2023-06-10T00:02:04;100409.97;;;17.93;78.99
68525;BME280;55524;51.380;13.372;2023-06-10T00:04:30;100413.16;;;17.85;79.59
68525;BME280;55524;51.380;13.372;2023-06-10T00:06:56;100411.47;;;17.84;79.80
68525;BME280;55524;51.380;13.372;2023-06-10T00:09:23;100406.75;;;17.75;80.49
68525;BME280;55524;51.380;13.372;2023-06-10T00:11:49;100410.56;;;17.71;81.02
68525;BME280;55524;51.380;13.372;2023-06-10T00:14:15;100406.28;;;17.68;81.11
68525;BME280;55524;51.380;13.372;2023-06-10T00:16:42;100401.25;;;17.64;81.46
68525;BME280;55524;51.380;13.372;2023-06-10T00:19:11;100398.56;;;17.64;81.78
68525;BME280;55524;51.380;13.372;2023-06-10T00:21:40;100406.72;;;17.62;81.39
68525;BME280;55524;51.380;13.372;2023-06-10T00:24:08;100407.97;;;17.57;82.00
68525;BME280;55524;51.380;13.372;2023-06-10T00:26:38;100406.38;;;17.54;82.09
68525;BME280;55524;51.380;13.372;2023-06-10T00:29:05;100401.03;;;17.54;82.02
68525;BME280;55524;51.380;13.372;2023-06-10T00:31:31;100410.19;;;17.50;81.79
68525;BME280;55524;51.380;13.372;2023-06-10T00:33:58;100412.66;;;17.53;82.02
68525;BME280;55524;51.380;13.372;2023-06-10T00:36:24;100407.78;;;17.33;82.85
68525;BME280;55524;51.380;13.372;2023-06-10T00:38:51;100420.97;;;17.21;83.89
68525;BME280;55524;51.380;13.372;2023-06-10T00:41:17;100416.41;;;17.24;84.57
68525;BME280;55524;51.380;13.372;2023-06-10T00:43:44;100405.38;;;17.15;84.79
68525;BME280;55524;51.380;13.372;2023-06-10T00:46:13;100414.19;;;17.03;85.57
68525;BME280;55524;51.380;13.372;2023-06-10T00:48:42;100411.34;;;16.92;86.64
68525;BME280;55524;51.380;13.372;2023-06-10T00:51:09;100414.06;;;17.05;86.46
68525;BME280;55524;51.380;13.372;2023-06-10T00:53:40;100414.56;;;16.97;87.37
68525;BME280;55524;51.380;13.372;2023-06-10T00:56:07;100414.75;;;16.94;87.82
68525;BME280;55524;51.380;13.372;2023-06-10T00:58:35;100418.09;;;16.98;87.92
68525;BME280;55524;51.380;13.372;2023-06-10T01:01:02;100422.06;;;17.05;87.19
68525;BME280;55524;51.380;13.372;2023-06-10T01:03:30;100418.19;;;16.96;88.08
68525;BME280;55524;51.380;13.372;2023-06-10T01:09:02;100418.69;;;16.88;88.42
68525;BME280;55524;51.380;13.372;2023-06-10T01:11:40;100414.38;;;16.86;88.57
68525;BME280;55524;51.380;13.372;2023-06-10T01:14:10;100414.38;;;16.86;88.67
68525;BME280;55524;51.380;13.372;2023-06-10T01:16:36;100417.47;;;16.80;89.54
68525;BME280;55524;51.380;13.372;2023-06-10T01:19:03;100406.88;;;16.78;89.70
68525;BME280;55524;51.380;13.372;2023-06-10T01:21:30;100409.28;;;16.83;89.35
68525;BME280;55524;51.380;13.372;2023-06-10T01:23:57;100408.97;;;16.73;90.36
68525;BME280;55524;51.380;13.372;2023-06-10T01:26:29;100414.41;;;16.71;91.13
68525;BME280;55524;51.380;13.372;2023-06-10T01:29:17;100408.59;;;16.79;90.13
68525;BME280;55524;51.380;13.372;2023-06-10T01:31:53;100416.03;;;16.74;90.79
68525;BME280;55524;51.380;13.372;2023-06-10T01:34:24;100426.28;;;16.66;91.87
68525;BME280;55524;51.380;13.372;2023-06-10T01:36:51;100423.19;;;16.59;92.81
68525;BME280;55524;51.380;13.372;2023-06-10T01:39:22;100425.34;;;16.53;93.65
68525;BME280;55524;51.380;13.372;2023-06-10T01:41:51;100426.88;;;16.57;94.11
68525;BME280;55524;51.380;13.372;2023-06-10T01:44:22;100435.84;;;16.56;94.35
68525;BME280;55524;51.380;13.372;2023-06-10T01:46:48;100429.16;;;16.48;95.33
68525;BME280;55524;51.380;13.372;2023-06-10T01:49:15;100435.72;;;16.43;95.95
68525;BME280;55524;51.380;13.372;2023-06-10T01:51:41;100442.97;;;16.41;96.58
68525;BME280;55524;51.380;13.372;2023-06-10T01:54:08;100432.41;;;16.39;96.94
68525;BME280;55524;51.380;13.372;2023-06-10T01:56:34;100443.44;;;16.33;97.48
68525;BME280;55524;51.380;13.372;2023-06-10T01:59:00;100443.06;;;16.25;98.78
68525;BME280;55524;51.380;13.372;2023-06-10T02:01:27;100443.81;;;16.13;98.96
68525;BME280;55524;51.380;13.372;2023-06-10T02:03:53;100449.31;;;16.10;99.13
68525;BME280;55524;51.380;13.372;2023-06-10T02:06:19;100446.94;;;16.05;99.48
68525;BME280;55524;51.380;13.372;2023-06-10T02:08:46;100451.03;;;16.11;99.69
68525;BME280;55524;51.380;13.372;2023-06-10T02:11:12;100446.94;;;16.05;99.62
68525;BME280;55524;51.380;13.372;2023-06-10T02:13:39;100452.28;;;16.05;100.00
68525;BME280;55524;51.380;13.372;2023-06-10T02:16:05;100458.63;;;16.03;100.00
68525;BME280;55524;51.380;13.372;2023-06-10T02:18:35;100472.91;;;16.02;100.00
68525;BME280;55524;51.380;13.372;2023-06-10T02:21:01;100474.72;;;16.01;100.00
68525;BME280;55524;51.380;13.372;2023-06-10T02:23:27;100472.13;;;15.99;100.00
68525;BME280;55524;51.380;13.372;2023-06-10T02:25:54;100465.19;;;15.97;100.00
68525;BME280;55524;51.380;13.372;2023-06-10T02:28:20;100472.41;;;15.95;100.00
68525;BME280;55524;51.380;13.372;2023-06-10T02:30:46;100471.84;;;15.90;100.00
68525;BME280;55524;51.380;13.372;2023-06-10T02:33:12;100478.97;;;15.89;100.00
68525;BME280;55524;51.380;13.372;2023-06-10T02:35:39;100481.81;;;15.86;100.00
68525;BME280;55524;51.380;13.372;2023-06-10T02:38:06;100489.69;;;15.73;100.00
68525;BME280;55524;51.380;13.372;2023-06-10T02:40:32;100486.84;;;15.61;100.00
68525;BME280;55524;51.380;13.372;2023-06-10T02:42:59;100488.22;;;15.52;100.00
68525;BME280;55524;51.380;13.372;2023-06-10T02:45:25;100487.34;;;15.52;100.00
68525;BME280;55524;51.380;13.372;2023-06-10T02:47:52;100489.16;;;15.51;100.00
68525;BME280;55524;51.380;13.372;2023-06-10T02:50:18;100495.44;;;15.50;100.00
68525;BME280;55524;51.380;13.372;2023-06-10T02:52:44;100491.41;;;15.43;100.00
68525;BME280;55524;51.380;13.372;2023-06-10T02:55:10;100491.34;;;15.29;100.00
68525;BME280;55524;51.380;13.372;2023-06-10T02:57:37;100492.06;;;14.83;100.00
68525;BME280;55524;51.380;13.372;2023-06-10T03:00:03;100488.84;;;14.76;100.00
68525;BME280;55524;51.380;13.372;2023-06-10T03:02:39;100492.13;;;14.66;100.00
68525;BME280;55524;51.380;13.372;2023-06-10T03:05:06;100493.63;;;14.54;100.00
68525;BME280;55524;51.380;13.372;2023-06-10T03:07:36;100498.31;;;14.49;100.00
68525;BME280;55524;51.380;13.372;2023-06-10T03:10:03;100507.44;;;14.43;100.00
68525;BME280;55524;51.380;13.372;2023-06-10T03:12:29;100504.63;;;14.46;100.00
68525;BME280;55524;51.380;13.372;2023-06-10T03:14:56;100510.97;;;14.44;100.00
68525;BME280;55524;51.380;13.372;2023-06-10T03:17:22;100498.63;;;14.43;100.00
68525;BME280;55524;51.380;13.372;2023-06-10T03:19:48;100504.94;;;14.40;100.00
68525;BME280;55524;51.380;13.372;2023-06-10T03:22:16;100504.31;;;14.35;100.00
68525;BME280;55524;51.380;13.372;2023-06-10T03:24:42;100504.31;;;14.35;100.00
68525;BME280;55524;51.380;13.372;2023-06-10T03:27:13;100509.09;;;14.28;100.00
68525;BME280;55524;51.380;13.372;2023-06-10T03:29:40;100501.97;;;14.29;100.00
68525;BME280;55524;51.380;13.372;2023-06-10T03:32:07;100509.19;;;14.27;100.00
68525;BME280;55524;51.380;13.372;2023-06-10T03:34:33;100509.09;;;14.28;100.00
68525;BME280;55524;51.380;13.372;2023-06-10T03:36:59;100507.94;;;14.34;100.00
68525;BME280;55524;51.380;13.372;2023-06-10T03:39:26;100508.41;;;14.42;100.00
68525;BME280;55524;51.380;13.372;2023-06-10T03:41:55;100510.44;;;14.37;100.00
68525;BME280;55524;51.380;13.372;2023-06-10T03:44:23;100513.09;;;14.37;100.00
68525;BME280;55524;51.380;13.372;2023-06-10T03:46:50;100514.47;;;14.44;100.00
68525;BME280;55524;51.380;13.372;2023-06-10T03:49:17;100520.59;;;14.46;100.00
68525;BME280;55524;51.380;13.372;2023-06-10T03:51:43;100523.50;;;14.59;100.00
68525;BME280;55524;51.380;13.372;2023-06-10T03:54:10;100517.69;;;14.68;100.00
68525;BME280;55524;51.380;13.372;2023-06-10T03:56:36;100522.69;;;14.74;100.00
68525;BME280;55524;51.380;13.372;2023-06-10T03:59:02;100524.25;;;14.79;100.00
68525;BME280;55524;51.380;13.372;2023-06-10T04:01:29;100525.63;;;14.86;100.00
68525;BME280;55524;51.380;13.372;2023-06-10T04:03:55;100532.16;;;14.96;100.00
68525;BME280;55524;51.380;13.372;2023-06-10T04:06:21;100528.22;;;15.03;100.00
68525;BME280;55524;51.380;13.372;2023-06-10T04:08:48;100530.47;;;15.11;100.00
68525;BME280;55524;51.380;13.372;2023-06-10T04:11:15;100531.06;;;15.16;100.00
68525;BME280;55524;51.380;13.372;2023-06-10T04:13:41;100537.09;;;15.19;100.00
68525;BME280;55524;51.380;13.372;2023-06-10T04:16:07;100532.28;;;15.26;100.00
68525;BME280;55524;51.380;13.372;2023-06-10T04:18:34;100535.72;;;15.28;100.00
68525;BME280;55524;51.380;13.372;2023-06-10T04:21:00;100537.47;;;15.29;100.00
68525;BME280;55524;51.380;13.372;2023-06-10T04:23:27;100532.88;;;15.31;100.00
68525;BME280;55524;51.380;13.372;2023-06-10T04:25:54;100531.09;;;15.32;100.00
68525;BME280;55524;51.380;13.372;2023-06-10T04:28:20;100534.28;;;15.38;100.00
68525;BME280;55524;51.380;13.372;2023-06-10T04:30:46;100530.16;;;15.48;100.00
68525;BME280;55524;51.380;13.372;2023-06-10T04:33:13;100531.34;;;15.59;100.00
68525;BME280;55524;51.380;13.372;2023-06-10T04:35:39;100527.00;;;15.73;100.00
68525;BME280;55524;51.380;13.372;2023-06-10T04:38:05;100534.88;;;15.75;100.00
68525;BME280;55524;51.380;13.372;2023-06-10T04:40:31;100535.22;;;15.85;100.00
68525;BME280;55524;51.380;13.372;2023-06-10T04:42:58;100527.47;;;15.96;100.00
68525;BME280;55524;51.380;13.372;2023-06-10T04:45:24;100534.34;;;16.00;100.00
68525;BME280;55524;51.380;13.372;2023-06-10T04:47:50;100528.28;;;16.12;100.00
68525;BME280;55524;51.380;13.372;2023-06-10T04:50:17;100529.38;;;16.24;100.00
68525;BME280;55524;51.380;13.372;2023-06-10T04:52:43;100538.63;;;16.33;100.00
68525;BME280;55524;51.380;13.372;2023-06-10T04:55:11;100535.97;;;16.47;100.00
68525;BME280;55524;51.380;13.372;2023-06-10T04:57:37;100531.13;;;16.54;100.00
68525;BME280;55524;51.380;13.372;2023-06-10T05:00:04;100534.97;;;16.64;100.00
68525;BME280;55524;51.380;13.372;2023-06-10T05:02:32;100537.66;;;16.78;100.00
68525;BME280;55524;51.380;13.372;2023-06-10T05:04:58;100529.28;;;16.84;100.00
68525;BME280;55524;51.380;13.372;2023-06-10T05:07:24;100535.97;;;16.91;100.00
68525;BME280;55524;51.380;13.372;2023-06-10T05:09:52;100542.06;;;16.93;100.00
68525;BME280;55524;51.380;13.372;2023-06-10T05:12:18;100533.66;;;17.00;100.00
68525;BME280;55524;51.380;13.372;2023-06-10T05:14:45;100538.13;;;17.13;100.00
68525;BME280;55524;51.380;13.372;2023-06-10T05:17:12;100539.56;;;17.19;100.00
68525;BME280;55524;51.380;13.372;2023-06-10T05:19:39;100535.28;;;17.16;100.00
68525;BME280;55524;51.380;13.372;2023-06-10T05:22:05;100539.28;;;17.24;100.00
68525;BME280;55524;51.380;13.372;2023-06-10T05:24:31;100542.50;;;17.29;100.00
68525;BME280;55524;51.380;13.372;2023-06-10T05:26:57;100547.38;;;17.36;100.00
68525;BME280;55524;51.380;13.372;2023-06-10T05:29:24;100542.19;;;17.48;100.00
68525;BME280;55524;51.380;13.372;2023-06-10T05:31:50;100545.78;;;17.61;100.00
68525;BME280;55524;51.380;13.372;2023-06-10T05:34:16;100547.22;;;17.66;99.73
68525;BME280;55524;51.380;13.372;2023-06-10T05:36:43;100547.88;;;17.70;99.79
68525;BME280;55524;51.380;13.372;2023-06-10T05:39:09;100545.06;;;17.86;98.46
68525;BME280;55524;51.380;13.372;2023-06-10T05:41:36;100554.38;;;17.93;97.92
68525;BME280;55524;51.380;13.372;2023-06-10T05:44:02;100549.31;;;18.03;96.78
68525;BME280;55524;51.380;13.372;2023-06-10T05:46:29;100545.97;;;17.99;96.13
68525;BME280;55524;51.380;13.372;2023-06-10T05:48:55;100546.13;;;18.10;95.25
68525;BME280;55524;51.380;13.372;2023-06-10T05:51:22;100539.59;;;18.14;95.99
68525;BME280;55524;51.380;13.372;2023-06-10T05:53:48;100540.72;;;18.37;94.93
68525;BME280;55524;51.380;13.372;2023-06-10T05:56:15;100540.47;;;18.28;93.97
68525;BME280;55524;51.380;13.372;2023-06-10T05:58:41;100539.44;;;18.43;94.38
68525;BME280;55524;51.380;13.372;2023-06-10T06:01:07;100542.84;;;18.45;93.88
68525;BME280;55524;51.380;13.372;2023-06-10T06:03:34;100534.84;;;18.58;92.84
68525;BME280;55524;51.380;13.372;2023-06-10T06:06:00;100531.22;;;18.72;90.77
68525;BME280;55524;51.380;13.372;2023-06-10T06:08:27;100541.19;;;18.82;90.44
68525;BME280;55524;51.380;13.372;2023-06-10T06:10:53;100541.31;;;18.94;89.18
68525;BME280;55524;51.380;13.372;2023-06-10T06:13:19;100544.16;;;19.03;90.19
68525;BME280;55524;51.380;13.372;2023-06-10T06:15:45;100541.06;;;19.09;88.18
68525;BME280;55524;51.380;13.372;2023-06-10T06:18:12;100541.72;;;19.13;88.27
68525;BME280;55524;51.380;13.372;2023-06-10T06:20:38;100535.00;;;19.31;88.16
68525;BME280;55524;51.380;13.372;2023-06-10T06:23:04;100532.69;;;19.51;86.47
68525;BME280;55524;51.380;13.372;2023-06-10T06:25:31;100534.31;;;19.53;85.81
68525;BME280;55524;51.380;13.372;2023-06-10T06:27:57;100523.44;;;19.68;84.37
68525;BME280;55524;51.380;13.372;2023-06-10T06:30:23;100522.66;;;19.78;83.48
68525;BME280;55524;51.380;13.372;2023-06-10T06:32:50;100520.53;;;19.95;83.18
68525;BME280;55524;51.380;13.372;2023-06-10T06:35:17;100515.09;;;20.07;81.66
68525;BME280;55524;51.380;13.372;2023-06-10T06:37:44;100516.72;;;20.21;81.06
68525;BME280;55524;51.380;13.372;2023-06-10T06:40:10;100514.94;;;20.33;79.67
68525;BME280;55524;51.380;13.372;2023-06-10T06:42:37;100516.28;;;20.38;79.26
68525;BME280;55524;51.380;13.372;2023-06-10T06:45:03;100513.75;;;20.48;78.75
68525;BME280;55524;51.380;13.372;2023-06-10T06:47:30;100514.91;;;20.57;79.00
68525;BME280;55524;51.380;13.372;2023-06-10T06:49:56;100497.94;;;20.68;76.71
68525;BME280;55524;51.380;13.372;2023-06-10T06:52:22;100508.72;;;20.79;77.22
68525;BME280;55524;51.380;13.372;2023-06-10T06:54:49;100496.38;;;20.99;74.96
68525;BME280;55524;51.380;13.372;2023-06-10T06:57:15;100507.00;;;21.11;75.42
68525;BME280;55524;51.380;13.372;2023-06-10T06:59:42;100496.47;;;21.08;73.72
68525;BME280;55524;51.380;13.372;2023-06-10T07:02:08;100508.31;;;21.28;74.14
68525;BME280;55524;51.380;13.372;2023-06-10T07:04:34;100506.09;;;21.45;73.58
68525;BME280;55524;51.380;13.372;2023-06-10T07:07:01;100500.00;;;21.31;72.25
68525;BME280;55524;51.380;13.372;2023-06-10T07:09:27;100509.75;;;21.55;72.85
68525;BME280;55524;51.380;13.372;2023-06-10T07:11:54;100513.72;;;21.72;72.12
68525;BME280;55524;51.380;13.372;2023-06-10T07:14:20;100506.72;;;21.80;70.76
68525;BME280;55524;51.380;13.372;2023-06-10T07:16:47;100508.06;;;21.86;71.23
68525;BME280;55524;51.380;13.372;2023-06-10T07:19:14;100506.28;;;22.28;70.35
68525;BME280;55524;51.380;13.372;2023-06-10T07:21:41;100499.59;;;22.44;69.29
68525;BME280;55524;51.380;13.372;2023-06-10T07:24:07;100481.03;;;22.71;67.81
68525;BME280;55524;51.380;13.372;2023-06-10T07:26:34;100474.25;;;22.77;66.58
68525;BME280;55524;51.380;13.372;2023-06-10T07:29:00;100466.00;;;22.99;64.97
68525;BME280;55524;51.380;13.372;2023-06-10T07:31:27;100466.38;;;23.25;64.98
68525;BME280;55524;51.380;13.372;2023-06-10T07:33:53;100467.38;;;23.24;64.68
68525;BME280;55524;51.380;13.372;2023-06-10T07:36:20;100473.22;;;23.49;64.44
68525;BME280;55524;51.380;13.372;2023-06-10T07:38:46;100473.69;;;23.73;64.05
68525;BME280;55524;51.380;13.372;2023-06-10T07:41:12;100464.00;;;23.61;63.24
68525;BME280;55524;51.380;13.372;2023-06-10T07:43:39;100452.94;;;24.03;62.27
68525;BME280;55524;51.380;13.372;2023-06-10T07:46:05;100458.47;;;24.11;61.80
68525;BME280;55524;51.380;13.372;2023-06-10T07:48:31;100426.28;;;24.47;58.83
68525;BME280;55524;51.380;13.372;2023-06-10T07:50:58;100444.63;;;24.53;59.94
68525;BME280;55524;51.380;13.372;2023-06-10T07:53:24;100426.84;;;24.88;57.78
68525;BME280;55524;51.380;13.372;2023-06-10T07:55:53;100429.47;;;24.97;57.76
68525;BME280;55524;51.380;13.372;2023-06-10T07:58:19;100444.06;;;25.14;60.18
68525;BME280;55524;51.380;13.372;2023-06-10T08:00:47;100428.44;;;25.36;57.65
68525;BME280;55524;51.380;13.372;2023-06-10T08:03:13;100412.72;;;25.57;55.13
68525;BME280;55524;51.380;13.372;2023-06-10T08:05:40;100409.94;;;25.85;54.91
68525;BME280;55524;51.380;13.372;2023-06-10T08:08:07;100419.69;;;25.78;55.08
68525;BME280;55524;51.380;13.372;2023-06-10T08:10:33;100438.78;;;25.40;56.82
68525;BME280;55524;51.380;13.372;2023-06-10T08:12:59;100437.56;;;25.52;57.22
68525;BME280;55524;51.380;13.372;2023-06-10T08:15:26;100422.22;;;25.97;55.25
68525;BME280;55524;51.380;13.372;2023-06-10T08:17:52;100422.69;;;26.10;54.76
68525;BME280;55524;51.380;13.372;2023-06-10T08:20:18;100419.22;;;26.00;54.16
68525;BME280;55524;51.380;13.372;2023-06-10T08:22:45;100410.50;;;26.40;53.71
68525;BME280;55524;51.380;13.372;2023-06-10T08:25:11;100421.91;;;26.18;54.03
68525;BME280;55524;51.380;13.372;2023-06-10T08:27:37;100425.44;;;26.70;54.35
68525;BME280;55524;51.380;13.372;2023-06-10T08:30:04;100410.56;;;26.75;52.67
68525;BME280;55524;51.380;13.372;2023-06-10T08:32:31;100407.34;;;27.13;51.45
68525;BME280;55524;51.380;13.372;2023-06-10T08:34:57;100414.69;;;26.95;52.61
68525;BME280;55524;51.380;13.372;2023-06-10T08:37:24;100403.22;;;27.09;51.41
68525;BME280;55524;51.380;13.372;2023-06-10T08:39:51;100393.81;;;27.38;50.54
68525;BME280;55524;51.380;13.372;2023-06-10T08:42:37;100403.00;;;27.45;50.73
68525;BME280;55524;51.380;13.372;2023-06-10T08:45:05;100378.25;;;27.81;49.02
68525;BME280;55524;51.380;13.372;2023-06-10T08:47:34;100391.28;;;27.69;49.85
68525;BME280;55524;51.380;13.372;2023-06-10T08:50:05;100382.97;;;27.70;49.80
68525;BME280;55524;51.380;13.372;2023-06-10T08:52:42;100383.84;;;27.96;49.48
68525;BME280;55524;51.380;13.372;2023-06-10T08:55:25;100369.50;;;28.26;48.48
68525;BME280;55524;51.380;13.372;2023-06-10T08:57:54;100364.16;;;27.77;47.48
68525;BME280;55524;51.380;13.372;2023-06-10T09:00:20;100370.00;;;28.38;48.04
68525;BME280;55524;51.380;13.372;2023-06-10T09:02:47;100355.72;;;28.36;47.16
68525;BME280;55524;51.380;13.372;2023-06-10T09:05:14;100343.09;;;28.59;46.67
68525;BME280;55524;51.380;13.372;2023-06-10T09:07:42;100352.16;;;28.35;47.61
68525;BME280;55524;51.380;13.372;2023-06-10T09:10:09;100348.03;;;28.56;46.82
68525;BME280;55524;51.380;13.372;2023-06-10T09:12:36;100346.34;;;28.86;46.93
68525;BME280;55524;51.380;13.372;2023-06-10T09:15:05;100347.16;;;28.63;46.00
68525;BME280;55524;51.380;13.372;2023-06-10T09:17:32;100335.50;;;28.78;44.83
68525;BME280;55524;51.380;13.372;2023-06-10T09:19:59;100328.97;;;28.95;43.05
68525;BME280;55524;51.380;13.372;2023-06-10T09:22:25;100332.53;;;28.01;43.23
68525;BME280;55524;51.380;13.372;2023-06-10T09:25:14;100319.38;;;28.76;42.43
68525;BME280;55524;51.380;13.372;2023-06-10T09:27:50;100312.53;;;29.11;41.70
68525;BME280;55524;51.380;13.372;2023-06-10T09:30:29;100311.75;;;29.03;41.86
68525;BME280;55524;51.380;13.372;2023-06-10T09:32:57;100296.22;;;28.49;40.47
68525;BME280;55524;51.380;13.372;2023-06-10T09:35:24;100302.78;;;28.86;40.48
68525;BME280;55524;51.380;13.372;2023-06-10T09:37:56;100308.44;;;29.38;40.57
68525;BME280;55524;51.380;13.372;2023-06-10T09:40:23;100297.53;;;29.15;39.89
68525;BME280;55524;51.380;13.372;2023-06-10T09:42:57;100316.94;;;27.62;42.95
68525;BME280;55524;51.380;13.372;2023-06-10T09:45:30;100315.06;;;27.87;42.28
68525;BME280;55524;51.380;13.372;2023-06-10T09:48:00;100311.78;;;28.63;41.62
68525;BME280;55524;51.380;13.372;2023-06-10T09:50:26;100304.41;;;28.41;41.92
68525;BME280;55524;51.380;13.372;2023-06-10T09:52:53;100308.66;;;29.06;40.65
68525;BME280;55524;51.380;13.372;2023-06-10T09:55:19;100305.91;;;28.83;41.60
68525;BME280;55524;51.380;13.372;2023-06-10T09:57:49;100301.50;;;28.34;41.52
68525;BME280;55524;51.380;13.372;2023-06-10T10:00:19;100313.81;;;28.61;42.44
68525;BME280;55524;51.380;13.372;2023-06-10T10:02:49;100306.34;;;29.17;41.76
68525;BME280;55524;51.380;13.372;2023-06-10T10:05:17;100310.59;;;28.97;41.98
68525;BME280;55524;51.380;13.372;2023-06-10T10:07:44;100300.13;;;29.09;40.73
68525;BME280;55524;51.380;13.372;2023-06-10T10:10:12;100286.16;;;29.12;39.41
68525;BME280;55524;51.380;13.372;2023-06-10T10:12:39;100299.13;;;28.79;41.20
68525;BME280;55524;51.380;13.372;2023-06-10T10:15:10;100308.34;;;28.70;42.12
68525;BME280;55524;51.380;13.372;2023-06-10T10:20:31;100301.66;;;29.34;40.97
68525;BME280;55524;51.380;13.372;2023-06-10T10:22:58;100292.84;;;29.70;40.25
68525;BME280;55524;51.380;13.372;2023-06-10T10:25:31;100285.69;;;29.69;39.09
68525;BME280;55524;51.380;13.372;2023-06-10T10:28:13;100288.34;;;30.36;39.93
68525;BME280;55524;51.380;13.372;2023-06-10T10:30:53;100284.22;;;30.11;38.32
68525;BME280;55524;51.380;13.372;2023-06-10T10:33:31;100277.81;;;30.48;39.02
68525;BME280;55524;51.380;13.372;2023-06-10T10:35:59;100279.44;;;30.28;39.25
68525;BME280;55524;51.380;13.372;2023-06-10T10:38:27;100282.31;;;29.97;39.53
68525;BME280;55524;51.380;13.372;2023-06-10T10:40:54;100284.56;;;29.63;39.85
68525;BME280;55524;51.380;13.372;2023-06-10T10:43:26;100282.41;;;29.36;40.07
68525;BME280;55524;51.380;13.372;2023-06-10T10:46:03;100283.56;;;29.56;39.58
68525;BME280;55524;51.380;13.372;2023-06-10T10:48:38;100282.66;;;29.03;39.98
68525;BME280;55524;51.380;13.372;2023-06-10T10:51:05;100278.91;;;29.04;39.44
68525;BME280;55524;51.380;13.372;2023-06-10T10:53:31;100277.50;;;29.08;39.67
68525;BME280;55524;51.380;13.372;2023-06-10T10:56:13;100275.09;;;28.59;39.69
68525;BME280;55524;51.380;13.372;2023-06-10T10:58:40;100276.72;;;28.37;40.53
68525;BME280;55524;51.380;13.372;2023-06-10T11:01:13;100279.75;;;28.34;40.52
68525;BME280;55524;51.380;13.372;2023-06-10T11:03:47;100274.53;;;28.64;39.82
68525;BME280;55524;51.380;13.372;2023-06-10T11:06:17;100281.63;;;27.78;40.59
68525;BME280;55524;51.380;13.372;2023-06-10T11:11:27;100275.34;;;28.33;40.10
68525;BME280;55524;51.380;13.372;2023-06-10T11:16:43;100312.88;;;27.41;43.47
68525;BME280;55524;51.380;13.372;2023-06-10T11:19:09;100343.50;;;27.01;47.58
68525;BME280;55524;51.380;13.372;2023-06-10T11:21:58;100326.72;;;27.06;45.94
68525;BME280;55524;51.380;13.372;2023-06-10T11:24:26;100319.06;;;26.93;45.69
68525;BME280;55524;51.380;13.372;2023-06-10T11:26:52;100319.72;;;26.87;46.18
68525;BME280;55524;51.380;13.372;2023-06-10T11:29:19;100324.50;;;26.93;46.05
68525;BME280;55524;51.380;13.372;2023-06-10T11:31:51;100303.50;;;27.11;44.42
68525;BME280;55524;51.380;13.372;2023-06-10T11:34:25;100300.06;;;26.85;44.67
68525;BME280;55524;51.380;13.372;2023-06-10T11:36:57;100290.88;;;26.78;44.12
68525;BME280;55524;51.380;13.372;2023-06-10T11:39:24;100279.53;;;26.82;43.84
68525;BME280;55524;51.380;13.372;2023-06-10T11:41:52;100292.06;;;26.83;44.07
68525;BME280;55524;51.380;13.372;2023-06-10T11:44:19;100278.84;;;26.80;43.15
68525;BME280;55524;51.380;13.372;2023-06-10T11:46:47;100282.91;;;26.84;44.08
68525;BME280;55524;51.380;13.372;2023-06-10T11:49:15;100284.13;;;26.90;43.52
68525;BME280;55524;51.380;13.372;2023-06-10T11:51:41;100271.16;;;28.14;42.43
68525;BME280;55524;51.380;13.372;2023-06-10T11:54:15;100257.28;;;28.80;41.37
68525;BME280;55524;51.380;13.372;2023-06-10T11:56:42;100260.22;;;28.39;41.52
68525;BME280;55524;51.380;13.372;2023-06-10T11:59:08;100263.97;;;27.74;42.01
68525;BME280;55524;51.380;13.372;2023-06-10T12:01:37;100289.97;;;27.60;43.62
68525;BME280;55524;51.380;13.372;2023-06-10T12:04:06;100284.69;;;27.34;43.85
68525;BME280;55524;51.380;13.372;2023-06-10T12:06:53;100270.59;;;27.55;41.13
68525;BME280;55524;51.380;13.372;2023-06-10T12:09:29;100288.09;;;27.36;42.31
68525;BME280;55524;51.380;13.372;2023-06-10T12:12:00;100284.19;;;27.31;42.34
68525;BME280;55524;51.380;13.372;2023-06-10T12:14:55;100269.41;;;27.09;41.20
68525;BME280;55524;51.380;13.372;2023-06-10T12:19:58;100262.22;;;28.45;39.64
68525;BME280;55524;51.380;13.372;2023-06-10T12:22:25;100248.50;;;28.30;38.43
68525;BME280;55524;51.380;13.372;2023-06-10T12:24:58;100233.34;;;28.05;37.17
68525;BME280;55524;51.380;13.372;2023-06-10T12:27:25;100229.22;;;27.45;36.76
68525;BME280;55524;51.380;13.372;2023-06-10T12:29:52;100241.28;;;27.18;38.37
68525;BME280;55524;51.380;13.372;2023-06-10T12:32:43;100249.75;;;27.23;39.54
68525;BME280;55524;51.380;13.372;2023-06-10T12:35:11;100283.59;;;26.78;42.04
68525;BME280;55524;51.380;13.372;2023-06-10T12:37:39;100338.78;;;26.61;48.02
68525;BME280;55524;51.380;13.372;2023-06-10T12:40:07;100414.94;;;26.15;55.63
68525;BME280;55524;51.380;13.372;2023-06-10T12:42:36;100481.50;;;25.64;66.70
68525;BME280;55524;51.380;13.372;2023-06-10T12:45:03;100504.47;;;24.68;71.01
68525;BME280;55524;51.380;13.372;2023-06-10T12:47:31;100506.22;;;24.11;71.55
68525;BME280;55524;51.380;13.372;2023-06-10T12:50:08;100525.56;;;24.25;75.34
68525;BME280;55524;51.380;13.372;2023-06-10T12:52:35;100557.84;;;24.08;81.95
68525;BME280;55524;51.380;13.372;2023-06-10T12:55:01;100528.13;;;23.98;83.30
68525;BME280;55524;51.380;13.372;2023-06-10T12:57:27;100523.16;;;24.13;88.03